EGNS/IOM METAR and TAF weather

Enter ICAO airport designator
Station Type Date Time Source
EGNS METAR 2022/01/18 07:20 UTC NOAA

EGNS 180720Z 19012KT 9999 FEW012 BKN018 08/06 Q1034 NOSIG


Station Type Date Time Source
EGNS Decoded METAR 2022/01/18 07:20 UTC NOAA

Isle Of Man / Ronaldsway Airport, United Kingdom (EGNS) 54-05N 004-38W 0M
Jan 18, 2022 - 02:20 AM EST / 2022.01.18 0720 UTC
Wind: from the S (190 degrees) at 14 MPH (12 KT):0
Visibility: greater than 7 mile(s):0
Sky conditions: mostly cloudy
Temperature: 46 F (8 C)
Dew Point: 42 F (6 C)
Relative Humidity: 87%
Pressure (altimeter): 30.53 in. Hg (1034 hPa)
ob: EGNS 180720Z 19012KT 9999 FEW012 BKN018 08/06 Q1034 NOSIG
cycle: 7

Station Type Date Time Source
EGNS TAF 2019/01/16 05:00 UTC NOAA

TAF EGNS 160500 Z 1606/1615 28020KT 9999 FEW010 BKN025
TEMPO 1606/1609 6000 RA BKN010 PROB30
TEMPO 1613/1615 7000 -SHRA

Example: see airport list